Time,TemperatureF,DewpointF,PressureIn,WindDirection,WindDirectionDegrees,WindSpeedMPH,WindSpeedGustMPH,Humidity,HourlyPrecipIn,Conditions,Clouds,dailyrainin,SolarRadiationWatts/m^2,SoftwareType,DateUTC
2013-09-07 00:02:00,66.0,50.0,-100.00,SE,125,0.0,6.0,57,0.00,,,0.00,0.000000,,2013-09-07 07:02:00,
2013-09-07 00:12:00,66.0,50.0,-100.00,SE,125,0.0,6.0,57,0.00,,,0.00,0.000000,,2013-09-07 07:12:00,
2013-09-07 00:43:00,68.0,53.0,-100.00,NNW,337,3.0,10.0,58,0.00,,,0.00,0.000000,,2013-09-07 07:43:00,
2013-09-07 00:52:00,68.0,53.0,-100.00,NNW,337,3.0,10.0,58,0.00,,,0.00,0.000000,,2013-09-07 07:52:00,
2013-09-07 01:02:00,68.0,53.0,-100.00,NNW,337,3.0,10.0,58,0.00,,,0.00,0.000000,,2013-09-07 08:02:00,
2013-09-07 01:12:00,68.0,53.0,-100.00,NNW,337,3.0,10.0,58,0.00,,,0.00,0.000000,,2013-09-07 08:12:00,
2013-09-07 01:43:00,68.0,54.0,-100.00,ENE,75,0.0,10.0,61,0.00,,,0.00,0.000000,,2013-09-07 08:43:00,
2013-09-07 01:53:00,68.0,54.0,-100.00,ENE,75,0.0,10.0,61,0.00,,,0.00,0.000000,,2013-09-07 08:53:00,
2013-09-07 02:01:00,68.0,54.0,-100.00,ENE,75,0.0,10.0,61,0.00,,,0.00,0.000000,,2013-09-07 09:01:00,
2013-09-07 02:12:00,68.0,54.0,-100.00,ENE,75,0.0,10.0,61,0.00,,,0.00,0.000000,,2013-09-07 09:12:00,
2013-09-07 02:42:00,68.0,56.0,-100.00,ENE,60,0.0,5.0,65,0.00,,,0.00,0.000000,,2013-09-07 09:42:00,
2013-09-07 02:52:00,68.0,56.0,-100.00,ENE,60,0.0,5.0,65,0.00,,,0.00,0.000000,,2013-09-07 09:52:00,
2013-09-07 03:01:00,68.0,56.0,-100.00,ENE,60,0.0,5.0,65,0.00,,,0.00,0.000000,,2013-09-07 10:01:00,
2013-09-07 03:11:00,68.0,56.0,-100.00,ENE,60,0.0,5.0,65,0.00,,,0.00,0.000000,,2013-09-07 10:11:00,
2013-09-07 03:41:00,67.0,54.0,-100.00,NE,56,0.0,4.0,63,0.00,,,0.00,0.000000,,2013-09-07 10:41:00,
2013-09-07 03:51:00,67.0,54.0,-100.00,NE,56,0.0,4.0,63,0.00,,,0.00,0.000000,,2013-09-07 10:51:00,
2013-09-07 04:03:00,67.0,54.0,-100.00,NE,56,0.0,4.0,63,0.00,,,0.00,0.000000,,2013-09-07 11:03:00,
2013-09-07 04:13:00,67.0,54.0,-100.00,NE,56,0.0,4.0,63,0.00,,,0.00,0.000000,,2013-09-07 11:13:00,
2013-09-07 04:43:00,67.0,54.0,-100.00,South,180,0.0,2.0,64,0.00,,,0.00,0.000000,,2013-09-07 11:43:00,
2013-09-07 04:52:00,67.0,54.0,-100.00,South,180,0.0,2.0,64,0.00,,,0.00,0.000000,,2013-09-07 11:52:00,
2013-09-07 05:02:00,67.0,54.0,-100.00,South,180,0.0,2.0,64,0.00,,,0.00,0.000000,,2013-09-07 12:02:00,
2013-09-07 05:12:00,67.0,54.0,-100.00,South,180,0.0,2.0,64,0.00,,,0.00,0.000000,,2013-09-07 12:12:00,
2013-09-07 05:42:00,69.0,55.0,-100.00,NNE,20,0.0,3.0,61,0.00,,,0.00,0.000000,,2013-09-07 12:42:00,
2013-09-07 05:52:00,69.0,55.0,-100.00,NNE,20,0.0,3.0,61,0.00,,,0.00,0.000000,,2013-09-07 12:52:00,
2013-09-07 06:02:00,69.0,55.0,-100.00,NNE,20,0.0,3.0,61,0.00,,,0.00,0.000000,,2013-09-07 13:02:00,
2013-09-07 06:11:00,69.0,55.0,-100.00,NNE,20,0.0,3.0,61,0.00,,,0.00,0.000000,,2013-09-07 13:11:00,
2013-09-07 06:42:00,69.0,55.0,-100.00,East,88,2.0,8.0,62,0.00,,,0.00,0.000000,,2013-09-07 13:42:00,
2013-09-07 06:52:00,69.0,55.0,-100.00,East,88,2.0,8.0,62,0.00,,,0.00,0.000000,,2013-09-07 13:52:00,
2013-09-07 07:02:00,69.0,55.0,-100.00,East,88,2.0,8.0,62,0.00,,,0.00,0.000000,,2013-09-07 14:02:00,
2013-09-07 07:11:00,69.0,55.0,-100.00,East,88,2.0,8.0,62,0.00,,,0.00,0.000000,,2013-09-07 14:11:00,
2013-09-07 07:42:00,71.0,58.0,-100.00,East,79,1.0,14.0,63,0.00,,,-99.99,40.000000,,2013-09-07 14:42:00,
2013-09-07 07:52:00,71.0,58.0,-100.00,East,79,1.0,14.0,63,0.00,,,-99.99,40.000000,,2013-09-07 14:52:00,
2013-09-07 08:02:00,71.0,58.0,-100.00,East,79,1.0,14.0,63,0.00,,,-99.99,40.000000,,2013-09-07 15:02:00,
2013-09-07 08:11:00,71.0,58.0,-100.00,East,79,1.0,14.0,63,0.00,,,-99.99,40.000000,,2013-09-07 15:11:00,
2013-09-07 08:44:00,80.0,59.0,-100.00,NE,43,0.0,10.0,48,0.00,,,0.00,271.000000,,2013-09-07 15:44:00,
2013-09-07 08:54:00,80.0,59.0,-100.00,NE,43,0.0,10.0,48,0.00,,,0.00,271.000000,,2013-09-07 15:54:00,
2013-09-07 09:03:00,80.0,59.0,-100.00,NE,43,0.0,10.0,48,0.00,,,0.00,271.000000,,2013-09-07 16:03:00,
2013-09-07 09:12:00,80.0,59.0,-100.00,NE,43,0.0,10.0,48,0.00,,,0.00,271.000000,,2013-09-07 16:12:00,
2013-09-07 10:43:00,91.0,53.0,-100.00,South,190,5.0,11.0,28,0.00,,,0.00,758.000000,,2013-09-07 17:43:00,
2013-09-07 10:52:00,91.0,53.0,-100.00,South,190,5.0,11.0,28,0.00,,,0.00,758.000000,,2013-09-07 17:52:00,
2013-09-07 11:01:00,91.0,53.0,-100.00,South,190,5.0,11.0,28,0.00,,,0.00,758.000000,,2013-09-07 18:01:00,
2013-09-07 11:12:00,91.0,53.0,-100.00,South,190,5.0,11.0,28,0.00,,,0.00,758.000000,,2013-09-07 18:12:00,
2013-09-07 12:42:00,91.0,57.0,-100.00,SW,229,6.0,15.0,32,-99.99,,,0.00,772.000000,,2013-09-07 19:42:00,
2013-09-07 12:52:00,91.0,57.0,-100.00,SW,229,6.0,15.0,32,-99.99,,,0.00,772.000000,,2013-09-07 19:52:00,
2013-09-07 13:02:00,91.0,57.0,-100.00,SW,229,6.0,15.0,32,-99.99,,,0.00,772.000000,,2013-09-07 20:02:00,
2013-09-07 13:11:00,91.0,57.0,-100.00,SW,229,6.0,15.0,32,-99.99,,,0.00,772.000000,,2013-09-07 20:11:00,
2013-09-07 13:42:00,77.0,54.0,-100.00,NE,50,9.0,17.0,45,0.00,,,0.00,413.000000,,2013-09-07 20:42:00,
2013-09-07 13:53:00,77.0,54.0,-100.00,NE,50,9.0,17.0,45,0.00,,,0.00,413.000000,,2013-09-07 20:53:00,
2013-09-07 14:02:00,77.0,54.0,-100.00,NE,50,9.0,17.0,45,0.00,,,0.00,413.000000,,2013-09-07 21:02:00,
2013-09-07 14:12:00,77.0,54.0,-100.00,NE,50,9.0,17.0,45,0.00,,,0.00,413.000000,,2013-09-07 21:12:00,
2013-09-07 14:44:00,72.0,64.0,-100.00,ENE,60,1.0,10.0,77,0.09,,,0.09,319.000000,,2013-09-07 21:44:00,
2013-09-07 14:54:00,72.0,64.0,-100.00,ENE,60,1.0,10.0,77,0.09,,,0.09,319.000000,,2013-09-07 21:54:00,
2013-09-07 15:04:00,72.0,64.0,-100.00,ENE,60,1.0,10.0,77,0.09,,,0.09,319.000000,,2013-09-07 22:04:00,
2013-09-07 15:13:00,72.0,64.0,-100.00,ENE,60,1.0,10.0,77,0.09,,,0.09,319.000000,,2013-09-07 22:13:00,
2013-09-07 15:43:00,86.0,62.0,-100.00,East,89,6.0,12.0,45,-99.99,,,0.10,1083.000000,,2013-09-07 22:43:00,
2013-09-07 15:53:00,86.0,62.0,-100.00,East,89,6.0,12.0,45,-99.99,,,0.10,1083.000000,,2013-09-07 22:53:00,
2013-09-07 16:03:00,86.0,62.0,-100.00,East,89,6.0,12.0,45,-99.99,,,0.10,1083.000000,,2013-09-07 23:03:00,
2013-09-07 16:12:00,86.0,62.0,-100.00,East,89,6.0,12.0,45,-99.99,,,0.10,1083.000000,,2013-09-07 23:12:00,
2013-09-07 16:42:00,80.0,61.0,-100.00,North,5,4.0,13.0,53,0.00,,,0.10,557.000000,,2013-09-07 23:42:00,
2013-09-07 16:53:00,80.0,61.0,-100.00,North,5,4.0,13.0,53,0.00,,,0.10,557.000000,,2013-09-07 23:53:00,
2013-09-07 17:02:00,80.0,61.0,-100.00,North,5,4.0,13.0,53,0.00,,,0.10,557.000000,,2013-09-08 00:02:00,
2013-09-07 17:11:00,80.0,61.0,-100.00,North,5,4.0,13.0,53,0.00,,,0.10,557.000000,,2013-09-08 00:11:00,
2013-09-07 17:42:00,78.0,58.0,-100.00,ENE,59,7.0,15.0,51,0.00,,,0.10,531.000000,,2013-09-08 00:42:00,
2013-09-07 17:52:00,78.0,58.0,-100.00,ENE,59,7.0,15.0,51,0.00,,,0.10,531.000000,,2013-09-08 00:52:00,
2013-09-07 18:01:00,78.0,58.0,-100.00,ENE,59,7.0,15.0,51,0.00,,,0.10,531.000000,,2013-09-08 01:01:00,
2013-09-07 18:11:00,78.0,58.0,-100.00,ENE,59,7.0,15.0,51,0.00,,,0.10,531.000000,,2013-09-08 01:11:00,
2013-09-07 18:42:00,75.0,58.0,-100.00,NE,56,8.0,13.0,55,0.00,,,0.10,305.000000,,2013-09-08 01:42:00,
2013-09-07 18:52:00,75.0,58.0,-100.00,NE,56,8.0,13.0,55,0.00,,,0.10,305.000000,,2013-09-08 01:52:00,
2013-09-07 19:02:00,75.0,58.0,-100.00,NE,56,8.0,13.0,55,0.00,,,0.10,305.000000,,2013-09-08 02:02:00,
2013-09-07 19:11:00,75.0,58.0,-100.00,NE,56,8.0,13.0,55,0.00,,,0.10,305.000000,,2013-09-08 02:11:00,
2013-09-07 19:43:00,70.0,58.0,-100.00,East,79,1.0,15.0,65,0.00,,,-99.99,54.000000,,2013-09-08 02:43:00,
2013-09-07 19:52:00,70.0,58.0,-100.00,East,79,1.0,15.0,65,0.00,,,-99.99,54.000000,,2013-09-08 02:52:00,
2013-09-07 20:02:00,70.0,58.0,-100.00,East,79,1.0,15.0,65,0.00,,,-99.99,54.000000,,2013-09-08 03:02:00,
2013-09-07 20:12:00,70.0,58.0,-100.00,East,79,1.0,15.0,65,0.00,,,-99.99,54.000000,,2013-09-08 03:12:00,
2013-09-07 20:44:00,66.0,57.0,-100.00,WSW,250,0.0,4.0,74,0.00,,,0.10,0.000000,,2013-09-08 03:44:00,
2013-09-07 20:54:00,66.0,57.0,-100.00,WSW,250,0.0,4.0,74,0.00,,,0.10,0.000000,,2013-09-08 03:54:00,
2013-09-07 21:02:00,-999.0,-99.9,-100.00,WSW,250,0.0,4.0,-999,-99.99,,,-99.99,0.000000,,2013-09-08 04:02:00,
2013-09-07 21:14:00,66.0,57.0,-100.00,WSW,250,0.0,4.0,74,0.00,,,0.10,0.000000,,2013-09-08 04:14:00,
2013-09-07 21:43:00,65.0,60.0,-100.00,WSW,240,0.0,3.0,83,0.00,,,0.10,0.000000,,2013-09-08 04:43:00,
2013-09-07 21:54:00,65.0,60.0,-100.00,WSW,240,0.0,3.0,83,0.00,,,0.10,0.000000,,2013-09-08 04:54:00,
2013-09-07 22:03:00,65.0,60.0,-100.00,WSW,240,0.0,3.0,83,0.00,,,0.10,0.000000,,2013-09-08 05:03:00,
2013-09-07 22:12:00,65.0,60.0,-100.00,WSW,240,0.0,3.0,83,0.00,,,0.10,0.000000,,2013-09-08 05:12:00,
2013-09-07 22:43:00,62.0,58.0,-100.00,SSW,211,0.0,0.0,86,0.00,,,0.10,0.000000,,2013-09-08 05:43:00,
2013-09-07 22:52:00,62.0,58.0,-100.00,SSW,211,0.0,0.0,86,0.00,,,0.10,0.000000,,2013-09-08 05:52:00,
2013-09-07 23:02:00,62.0,58.0,-100.00,SSW,211,0.0,0.0,86,0.00,,,0.10,0.000000,,2013-09-08 06:02:00,
2013-09-07 23:12:00,62.0,58.0,-100.00,SSW,211,0.0,0.0,86,0.00,,,0.10,0.000000,,2013-09-08 06:12:00,
2013-09-07 23:42:00,61.0,57.0,-100.00,WSW,238,0.0,0.0,87,0.00,,,0.10,0.000000,,2013-09-08 06:42:00,
2013-09-07 23:53:00,61.0,57.0,-100.00,WSW,238,0.0,0.0,87,0.00,,,0.10,0.000000,,2013-09-08 06:53:00,